sensor_id;sensor_type;location;lat;lon;timestamp;pressure;altitude;pressure_sealevel;temperature;humidity
48968;BME280;46511;53.148;8.204;2023-06-04T00:01:21;102311.47;;;12.57;100.00
48968;BME280;46511;53.148;8.204;2023-06-04T00:03:53;102313.31;;;12.55;100.00
48968;BME280;46511;53.148;8.204;2023-06-04T00:06:19;102318.78;;;12.52;100.00
48968;BME280;46511;53.148;8.204;2023-06-04T00:08:50;102313.56;;;12.49;100.00
48968;BME280;46511;53.148;8.204;2023-06-04T00:11:22;102314.69;;;12.43;100.00
48968;BME280;46511;53.148;8.204;2023-06-04T00:13:53;102301.66;;;12.36;100.00
48968;BME280;46511;53.148;8.204;2023-06-04T00:16:25;102314.25;;;12.32;100.00
48968;BME280;46511;53.148;8.204;2023-06-04T00:18:56;102315.22;;;12.29;100.00
48968;BME280;46511;53.148;8.204;2023-06-04T00:21:28;102316.16;;;12.28;100.00
48968;BME280;46511;53.148;8.204;2023-06-04T00:23:54;102309.03;;;12.29;100.00
48968;BME280;46511;53.148;8.204;2023-06-04T00:26:21;102315.28;;;12.28;100.00
48968;BME280;46511;53.148;8.204;2023-06-04T00:28:53;102314.34;;;12.29;100.00
48968;BME280;46511;53.148;8.204;2023-06-04T00:31:20;102312.81;;;12.23;100.00
48968;BME280;46511;53.148;8.204;2023-06-04T00:33:52;102305.78;;;12.21;100.00
48968;BME280;46511;53.148;8.204;2023-06-04T00:36:23;102308.59;;;12.18;100.00
48968;BME280;46511;53.148;8.204;2023-06-04T00:38:54;102300.03;;;12.10;100.00
48968;BME280;46511;53.148;8.204;2023-06-04T00:41:26;102305.53;;;12.05;100.00
48968;BME280;46511;53.148;8.204;2023-06-04T00:43:57;102312.66;;;12.05;100.00
48968;BME280;46511;53.148;8.204;2023-06-04T00:46:32;102313.97;;;11.93;100.00
48968;BME280;46511;53.148;8.204;2023-06-04T00:49:06;102317.81;;;11.86;100.00
48968;BME280;46511;53.148;8.204;2023-06-04T00:51:33;102320.50;;;11.86;100.00
48968;BME280;46511;53.148;8.204;2023-06-04T00:54:04;102324.06;;;11.85;100.00
48968;BME280;46511;53.148;8.204;2023-06-04T00:56:39;102317.13;;;11.79;100.00
48968;BME280;46511;53.148;8.204;2023-06-04T00:59:06;102319.88;;;11.78;100.00
48968;BME280;46511;53.148;8.204;2023-06-04T01:01:42;102312.81;;;11.77;100.00
48968;BME280;46511;53.148;8.204;2023-06-04T01:07:09;102308.63;;;11.69;100.00
48968;BME280;46511;53.148;8.204;2023-06-04T01:09:38;102304.22;;;11.68;100.00
48968;BME280;46511;53.148;8.204;2023-06-04T01:12:10;102311.41;;;11.66;100.00
48968;BME280;46511;53.148;8.204;2023-06-04T01:14:42;102311.50;;;11.63;100.00
48968;BME280;46511;53.148;8.204;2023-06-04T01:20:17;102304.31;;;11.65;100.00
48968;BME280;46511;53.148;8.204;2023-06-04T01:27:57;102310.88;;;11.57;100.00
48968;BME280;46511;53.148;8.204;2023-06-04T01:30:30;102314.41;;;11.57;100.00
48968;BME280;46511;53.148;8.204;2023-06-04T01:33:03;102309.09;;;11.57;100.00
48968;BME280;46511;53.148;8.204;2023-06-04T01:35:34;102310.09;;;11.53;100.00
48968;BME280;46511;53.148;8.204;2023-06-04T01:38:06;102306.16;;;11.40;100.00
48968;BME280;46511;53.148;8.204;2023-06-04T01:40:32;102306.44;;;11.32;100.00
48968;BME280;46511;53.148;8.204;2023-06-04T01:43:04;102315.66;;;11.22;100.00
48968;BME280;46511;53.148;8.204;2023-06-04T01:45:35;102313.13;;;11.18;100.00
48968;BME280;46511;53.148;8.204;2023-06-04T01:48:07;102317.03;;;11.07;100.00
48968;BME280;46511;53.148;8.204;2023-06-04T01:50:38;102310.00;;;11.06;100.00
48968;BME280;46511;53.148;8.204;2023-06-04T01:53:04;102308.06;;;11.11;100.00
48968;BME280;46511;53.148;8.204;2023-06-04T01:55:36;102310.84;;;11.07;100.00
48968;BME280;46511;53.148;8.204;2023-06-04T01:58:08;102316.97;;;11.10;100.00
48968;BME280;46511;53.148;8.204;2023-06-04T02:00:40;102315.44;;;11.03;100.00
48968;BME280;46511;53.148;8.204;2023-06-04T02:03:11;102319.22;;;10.96;100.00
48968;BME280;46511;53.148;8.204;2023-06-04T02:05:43;102316.81;;;10.88;100.00
48968;BME280;46511;53.148;8.204;2023-06-04T02:08:17;102317.78;;;10.86;100.00
48968;BME280;46511;53.148;8.204;2023-06-04T02:10:49;102317.78;;;10.86;100.00
48968;BME280;46511;53.148;8.204;2023-06-04T02:13:21;102322.84;;;10.94;100.00
48968;BME280;46511;53.148;8.204;2023-06-04T02:15:52;102318.47;;;10.93;100.00
48968;BME280;46511;53.148;8.204;2023-06-04T02:18:24;102322.03;;;10.92;100.00
48968;BME280;46511;53.148;8.204;2023-06-04T02:20:56;102314.31;;;10.84;100.00
48968;BME280;46511;53.148;8.204;2023-06-04T02:23:27;102309.84;;;10.84;100.00
48968;BME280;46511;53.148;8.204;2023-06-04T02:25:53;102314.44;;;10.81;100.00
48968;BME280;46511;53.148;8.204;2023-06-04T02:28:25;102315.28;;;10.81;100.00
48968;BME280;46511;53.148;8.204;2023-06-04T02:30:56;102314.44;;;10.81;100.00
48968;BME280;46511;53.148;8.204;2023-06-04T02:33:28;102306.63;;;10.75;100.00
48968;BME280;46511;53.148;8.204;2023-06-04T02:35:59;102316.25;;;10.79;100.00
48968;BME280;46511;53.148;8.204;2023-06-04T02:38:31;102318.91;;;10.79;100.00
48968;BME280;46511;53.148;8.204;2023-06-04T02:41:02;102318.09;;;10.77;100.00
48968;BME280;46511;53.148;8.204;2023-06-04T02:43:34;102321.56;;;10.79;100.00
48968;BME280;46511;53.148;8.204;2023-06-04T02:46:05;102322.72;;;10.70;100.00
48968;BME280;46511;53.148;8.204;2023-06-04T02:48:37;102319.16;;;10.71;100.00
48968;BME280;46511;53.148;8.204;2023-06-04T02:51:08;102320.84;;;10.74;100.00
48968;BME280;46511;53.148;8.204;2023-06-04T02:53:36;102318.38;;;10.68;100.00
48968;BME280;46511;53.148;8.204;2023-06-04T02:56:07;102325.34;;;10.72;100.00
48968;BME280;46511;53.148;8.204;2023-06-04T02:58:48;102321.78;;;10.73;100.00
48968;BME280;46511;53.148;8.204;2023-06-04T03:01:23;102320.97;;;10.71;100.00
48968;BME280;46511;53.148;8.204;2023-06-04T03:03:55;102327.09;;;10.73;100.00
48968;BME280;46511;53.148;8.204;2023-06-04T03:06:28;102321.78;;;10.73;100.00
48968;BME280;46511;53.148;8.204;2023-06-04T03:09:00;102330.31;;;10.82;100.00
48968;BME280;46511;53.148;8.204;2023-06-04T03:11:31;102330.38;;;10.81;100.00
48968;BME280;46511;53.148;8.204;2023-06-04T03:13:58;102332.31;;;10.76;100.00
48968;BME280;46511;53.148;8.204;2023-06-04T03:16:29;102320.97;;;10.71;100.00
48968;BME280;46511;53.148;8.204;2023-06-04T03:19:00;102327.03;;;10.74;100.00
48968;BME280;46511;53.148;8.204;2023-06-04T03:21:32;102323.63;;;10.71;100.00
48968;BME280;46511;53.148;8.204;2023-06-04T03:24:03;102328.94;;;10.71;100.00
48968;BME280;46511;53.148;8.204;2023-06-04T03:26:35;102330.75;;;10.69;100.00
48968;BME280;46511;53.148;8.204;2023-06-04T03:29:06;102324.63;;;10.67;100.00
48968;BME280;46511;53.148;8.204;2023-06-04T03:31:37;102332.41;;;10.73;100.00
48968;BME280;46511;53.148;8.204;2023-06-04T03:34:09;102330.25;;;10.84;100.00
48968;BME280;46511;53.148;8.204;2023-06-04T03:36:40;102331.81;;;10.91;100.00
48968;BME280;46511;53.148;8.204;2023-06-04T03:39:11;102323.78;;;10.93;100.00
48968;BME280;46511;53.148;8.204;2023-06-04T03:41:42;102330.81;;;10.94;100.00
48968;BME280;46511;53.148;8.204;2023-06-04T03:44:18;102329.97;;;10.93;100.00
48968;BME280;46511;53.148;8.204;2023-06-04T03:46:50;102326.38;;;10.94;100.00
48968;BME280;46511;53.148;8.204;2023-06-04T03:49:21;102320.13;;;10.95;100.00
48968;BME280;46511;53.148;8.204;2023-06-04T03:51:53;102324.53;;;10.96;100.00
48968;BME280;46511;53.148;8.204;2023-06-04T03:54:24;102334.03;;;11.03;100.00
48968;BME280;46511;53.148;8.204;2023-06-04T03:56:56;102323.22;;;11.08;100.00
48968;BME280;46511;53.148;8.204;2023-06-04T03:59:27;102323.91;;;11.14;100.00
48968;BME280;46511;53.148;8.204;2023-06-04T04:01:59;102321.84;;;11.23;100.00
48968;BME280;46511;53.148;8.204;2023-06-04T04:04:30;102322.56;;;11.28;100.00
48968;BME280;46511;53.148;8.204;2023-06-04T04:07:01;102317.94;;;11.33;100.00
48968;BME280;46511;53.148;8.204;2023-06-04T04:09:33;102324.53;;;11.48;100.00
48968;BME280;46511;53.148;8.204;2023-06-04T04:12:05;102323.25;;;11.58;100.00
48968;BME280;46511;53.148;8.204;2023-06-04T04:14:37;102324.00;;;11.61;100.00
48968;BME280;46511;53.148;8.204;2023-06-04T04:17:08;102324.16;;;11.82;100.00
48968;BME280;46511;53.148;8.204;2023-06-04T04:19:39;102314.31;;;11.84;100.00
48968;BME280;46511;53.148;8.204;2023-06-04T04:22:11;102322.84;;;11.93;100.00
48968;BME280;46511;53.148;8.204;2023-06-04T04:24:42;102319.53;;;12.10;100.00
48968;BME280;46511;53.148;8.204;2023-06-04T04:27:14;102317.28;;;12.23;100.00
48968;BME280;46511;53.148;8.204;2023-06-04T04:29:46;102318.59;;;12.35;100.00
48968;BME280;46511;53.148;8.204;2023-06-04T04:32:19;102311.47;;;12.57;100.00
48968;BME280;46511;53.148;8.204;2023-06-04T04:34:50;102315.56;;;12.66;100.00
48968;BME280;46511;53.148;8.204;2023-06-04T04:37:23;102314.06;;;12.80;100.00
48968;BME280;46511;53.148;8.204;2023-06-04T04:39:55;102311.91;;;12.88;100.00
48968;BME280;46511;53.148;8.204;2023-06-04T04:42:26;102314.16;;;12.99;100.00
48968;BME280;46511;53.148;8.204;2023-06-04T04:44:57;102318.09;;;13.11;100.00
48968;BME280;46511;53.148;8.204;2023-06-04T04:47:29;102310.44;;;13.24;100.00
48968;BME280;46511;53.148;8.204;2023-06-04T04:50:00;102308.63;;;13.44;100.00
48968;BME280;46511;53.148;8.204;2023-06-04T04:52:31;102314.50;;;13.53;100.00
48968;BME280;46511;53.148;8.204;2023-06-04T04:55:02;102310.63;;;13.60;100.00
48968;BME280;46511;53.148;8.204;2023-06-04T04:57:34;102315.06;;;13.80;100.00
48968;BME280;46511;53.148;8.204;2023-06-04T05:00:06;102307.50;;;13.89;100.00
48968;BME280;46511;53.148;8.204;2023-06-04T05:02:40;102308.28;;;13.91;100.00
48968;BME280;46511;53.148;8.204;2023-06-04T05:05:11;102318.78;;;14.15;100.00
48968;BME280;46511;53.148;8.204;2023-06-04T05:07:43;102308.50;;;14.24;100.00
48968;BME280;46511;53.148;8.204;2023-06-04T05:10:14;102311.69;;;14.33;100.00
48968;BME280;46511;53.148;8.204;2023-06-04T05:12:52;102308.88;;;14.54;100.00
48968;BME280;46511;53.148;8.204;2023-06-04T05:15:20;102305.56;;;14.67;100.00
48968;BME280;46511;53.148;8.204;2023-06-04T05:17:47;102305.44;;;14.70;100.00
48968;BME280;46511;53.148;8.204;2023-06-04T05:20:18;102305.84;;;14.79;100.00
48968;BME280;46511;53.148;8.204;2023-06-04T05:22:51;102315.22;;;14.88;100.00
48968;BME280;46511;53.148;8.204;2023-06-04T05:25:23;102306.97;;;15.10;100.00
48968;BME280;46511;53.148;8.204;2023-06-04T05:27:56;102315.09;;;15.26;100.00
48968;BME280;46511;53.148;8.204;2023-06-04T05:30:27;102309.47;;;15.13;100.00
48968;BME280;46511;53.148;8.204;2023-06-04T05:32:59;102313.41;;;15.06;100.00
48968;BME280;46511;53.148;8.204;2023-06-04T05:35:30;102310.97;;;15.36;100.00
48968;BME280;46511;53.148;8.204;2023-06-04T05:38:03;102312.22;;;15.46;100.00
48968;BME280;46511;53.148;8.204;2023-06-04T05:40:34;102303.63;;;15.90;100.00
48968;BME280;46511;53.148;8.204;2023-06-04T05:43:06;102313.59;;;15.70;100.00
48968;BME280;46511;53.148;8.204;2023-06-04T05:45:33;102307.50;;;15.84;100.00
48968;BME280;46511;53.148;8.204;2023-06-04T05:48:04;102313.50;;;16.05;100.00
48968;BME280;46511;53.148;8.204;2023-06-04T05:50:36;102318.75;;;15.91;100.00
48968;BME280;46511;53.148;8.204;2023-06-04T05:53:07;102312.38;;;16.09;100.00
48968;BME280;46511;53.148;8.204;2023-06-04T05:55:39;102319.66;;;16.23;100.00
48968;BME280;46511;53.148;8.204;2023-06-04T05:58:10;102318.16;;;16.80;100.00
48968;BME280;46511;53.148;8.204;2023-06-04T06:00:42;102322.78;;;16.78;100.00
48968;BME280;46511;53.148;8.204;2023-06-04T06:03:13;102328.13;;;16.78;100.00
48968;BME280;46511;53.148;8.204;2023-06-04T06:05:47;102328.28;;;16.75;100.00
48968;BME280;46511;53.148;8.204;2023-06-04T06:08:18;102328.63;;;16.85;100.00
48968;BME280;46511;53.148;8.204;2023-06-04T06:10:49;102333.00;;;17.32;100.00
48968;BME280;46511;53.148;8.204;2023-06-04T06:13:21;102324.00;;;17.61;100.00
48968;BME280;46511;53.148;8.204;2023-06-04T06:15:54;102329.44;;;17.31;100.00
48968;BME280;46511;53.148;8.204;2023-06-04T06:18:27;102334.38;;;17.09;100.00
48968;BME280;46511;53.148;8.204;2023-06-04T06:20:58;102330.56;;;17.72;100.00
48968;BME280;46511;53.148;8.204;2023-06-04T06:23:29;102327.97;;;17.70;99.08
48968;BME280;46511;53.148;8.204;2023-06-04T06:26:01;102325.75;;;19.40;89.25
48968;BME280;46511;53.148;8.204;2023-06-04T06:28:34;102326.25;;;20.47;75.25
48968;BME280;46511;53.148;8.204;2023-06-04T06:31:06;102318.53;;;21.59;66.53
48968;BME280;46511;53.148;8.204;2023-06-04T06:33:38;102327.78;;;22.78;59.03
48968;BME280;46511;53.148;8.204;2023-06-04T06:36:12;102328.50;;;22.80;55.49
48968;BME280;46511;53.148;8.204;2023-06-04T06:38:44;102325.53;;;23.78;51.14
48968;BME280;46511;53.148;8.204;2023-06-04T06:41:18;102318.41;;;23.86;49.77
48968;BME280;46511;53.148;8.204;2023-06-04T06:43:50;102322.16;;;25.14;46.64
48968;BME280;46511;53.148;8.204;2023-06-04T06:46:21;102320.03;;;25.55;46.02
48968;BME280;46511;53.148;8.204;2023-06-04T06:48:53;102322.38;;;26.52;42.87
48968;BME280;46511;53.148;8.204;2023-06-04T06:51:24;102328.06;;;26.76;43.43
48968;BME280;46511;53.148;8.204;2023-06-04T06:53:55;102329.81;;;27.13;41.22
48968;BME280;46511;53.148;8.204;2023-06-04T06:56:27;102317.81;;;26.15;43.36
48968;BME280;46511;53.148;8.204;2023-06-04T06:58:53;102318.19;;;26.02;42.64
48968;BME280;46511;53.148;8.204;2023-06-04T07:01:20;102322.97;;;27.60;41.06
48968;BME280;46511;53.148;8.204;2023-06-04T07:03:52;102329.69;;;26.69;37.87
48968;BME280;46511;53.148;8.204;2023-06-04T07:06:23;102327.53;;;26.27;38.85
48968;BME280;46511;53.148;8.204;2023-06-04T07:08:54;102330.34;;;26.35;38.66
48968;BME280;46511;53.148;8.204;2023-06-04T07:11:26;102331.66;;;27.30;39.27
48968;BME280;46511;53.148;8.204;2023-06-04T07:13:57;102330.75;;;28.50;37.50
48968;BME280;46511;53.148;8.204;2023-06-04T07:16:23;102330.56;;;28.01;39.67
48968;BME280;46511;53.148;8.204;2023-06-04T07:18:55;102315.28;;;28.99;36.26
48968;BME280;46511;53.148;8.204;2023-06-04T07:21:21;102326.94;;;27.66;36.46
48968;BME280;46511;53.148;8.204;2023-06-04T07:23:54;102320.94;;;29.38;34.57
48968;BME280;46511;53.148;8.204;2023-06-04T07:26:26;102317.31;;;29.54;34.43
48968;BME280;46511;53.148;8.204;2023-06-04T07:29:01;102320.59;;;30.44;32.99
48968;BME280;46511;53.148;8.204;2023-06-04T07:31:32;102317.91;;;29.89;33.39
48968;BME280;46511;53.148;8.204;2023-06-04T07:34:04;102319.72;;;30.75;31.16
48968;BME280;46511;53.148;8.204;2023-06-04T07:36:35;102323.28;;;30.21;31.22
48968;BME280;46511;53.148;8.204;2023-06-04T07:39:07;102310.00;;;33.77;29.36
48968;BME280;46511;53.148;8.204;2023-06-04T07:41:38;102318.91;;;32.38;27.85
48968;BME280;46511;53.148;8.204;2023-06-04T07:44:10;102317.91;;;33.03;27.60
48968;BME280;46511;53.148;8.204;2023-06-04T07:46:41;102313.66;;;33.01;28.83
48968;BME280;46511;53.148;8.204;2023-06-04T07:49:12;102309.47;;;31.96;29.21
48968;BME280;46511;53.148;8.204;2023-06-04T07:51:44;102308.72;;;32.75;27.48
48968;BME280;46511;53.148;8.204;2023-06-04T07:54:15;102297.09;;;34.32;26.99
48968;BME280;46511;53.148;8.204;2023-06-04T07:56:47;102307.22;;;33.43;26.13
48968;BME280;46511;53.148;8.204;2023-06-04T07:59:19;102309.75;;;33.38;27.14
48968;BME280;46511;53.148;8.204;2023-06-04T08:01:50;102306.25;;;33.01;27.22
48968;BME280;46511;53.148;8.204;2023-06-04T08:04:24;102305.47;;;32.86;27.29
48968;BME280;46511;53.148;8.204;2023-06-04T08:06:56;102307.25;;;32.57;27.01
48968;BME280;46511;53.148;8.204;2023-06-04T08:09:27;102316.03;;;31.05;28.44
48968;BME280;46511;53.148;8.204;2023-06-04T08:11:59;102312.66;;;32.87;26.33
48968;BME280;46511;53.148;8.204;2023-06-04T08:14:30;102315.09;;;32.96;28.30
48968;BME280;46511;53.148;8.204;2023-06-04T08:17:02;102310.81;;;32.73;28.05
48968;BME280;46511;53.148;8.204;2023-06-04T08:19:34;102317.66;;;32.40;29.23
48968;BME280;46511;53.148;8.204;2023-06-04T08:22:05;102316.72;;;33.68;29.07
48968;BME280;46511;53.148;8.204;2023-06-04T08:24:37;102317.84;;;34.15;28.50
48968;BME280;46511;53.148;8.204;2023-06-04T08:27:08;102317.53;;;36.03;26.17
48968;BME280;46511;53.148;8.204;2023-06-04T08:29:35;102312.94;;;34.11;26.88
48968;BME280;46511;53.148;8.204;2023-06-04T08:32:07;102310.69;;;33.51;27.83
48968;BME280;46511;53.148;8.204;2023-06-04T08:34:39;102319.09;;;34.74;26.57
48968;BME280;46511;53.148;8.204;2023-06-04T08:37:10;102321.00;;;32.57;26.77
48968;BME280;46511;53.148;8.204;2023-06-04T08:39:42;102319.63;;;33.60;25.22
48968;BME280;46511;53.148;8.204;2023-06-04T08:42:15;102322.75;;;35.20;24.84
48968;BME280;46511;53.148;8.204;2023-06-04T08:44:52;102316.75;;;34.03;25.95
48968;BME280;46511;53.148;8.204;2023-06-04T08:47:24;102314.06;;;33.53;27.55
48968;BME280;46511;53.148;8.204;2023-06-04T08:49:59;102322.25;;;34.77;25.67
48968;BME280;46511;53.148;8.204;2023-06-04T08:52:33;102322.00;;;33.14;26.34
48968;BME280;46511;53.148;8.204;2023-06-04T08:55:06;102317.50;;;33.06;28.23
48968;BME280;46511;53.148;8.204;2023-06-04T08:57:39;102311.84;;;31.99;28.61
48968;BME280;46511;53.148;8.204;2023-06-04T09:00:11;102318.41;;;33.13;27.39
48968;BME280;46511;53.148;8.204;2023-06-04T09:02:44;102306.19;;;33.22;27.47
48968;BME280;46511;53.148;8.204;2023-06-04T09:05:21;102325.22;;;33.73;26.65
48968;BME280;46511;53.148;8.204;2023-06-04T09:07:53;102320.94;;;33.08;26.13
48968;BME280;46511;53.148;8.204;2023-06-04T09:10:35;102320.88;;;34.33;25.26
48968;BME280;46511;53.148;8.204;2023-06-04T09:13:04;102317.66;;;34.98;24.19
48968;BME280;46511;53.148;8.204;2023-06-04T09:15:34;102313.25;;;36.08;22.57
48968;BME280;46511;53.148;8.204;2023-06-04T09:18:00;102314.41;;;34.06;25.12
48968;BME280;46511;53.148;8.204;2023-06-04T09:20:27;102322.56;;;31.94;25.36
48968;BME280;46511;53.148;8.204;2023-06-04T09:22:59;102323.19;;;32.62;25.63
48968;BME280;46511;53.148;8.204;2023-06-04T09:25:30;102330.38;;;30.38;26.59
48968;BME280;46511;53.148;8.204;2023-06-04T09:27:57;102323.44;;;32.67;25.08
48968;BME280;46511;53.148;8.204;2023-06-04T09:30:37;102323.22;;;32.83;24.97
48968;BME280;46511;53.148;8.204;2023-06-04T09:33:08;102327.59;;;34.85;22.83
48968;BME280;46511;53.148;8.204;2023-06-04T09:35:40;102324.69;;;35.46;23.00
48968;BME280;46511;53.148;8.204;2023-06-04T09:38:11;102324.44;;;35.28;24.47
48968;BME280;46511;53.148;8.204;2023-06-04T09:40:38;102318.94;;;35.41;22.64
48968;BME280;46511;53.148;8.204;2023-06-04T09:43:09;102321.31;;;36.92;22.86
48968;BME280;46511;53.148;8.204;2023-06-04T09:45:41;102322.50;;;38.56;22.01
48968;BME280;46511;53.148;8.204;2023-06-04T09:48:18;102323.91;;;38.47;22.03
48968;BME280;46511;53.148;8.204;2023-06-04T09:50:54;102314.66;;;37.86;22.26
48968;BME280;46511;53.148;8.204;2023-06-04T09:53:25;102324.56;;;35.99;23.65
48968;BME280;46511;53.148;8.204;2023-06-04T09:55:57;102325.09;;;34.29;24.70
48968;BME280;46511;53.148;8.204;2023-06-04T09:58:29;102329.50;;;35.71;24.86
48968;BME280;46511;53.148;8.204;2023-06-04T10:01:02;102328.25;;;34.87;23.45
48968;BME280;46511;53.148;8.204;2023-06-04T10:03:35;102334.22;;;34.91;24.52
48968;BME280;46511;53.148;8.204;2023-06-04T10:06:07;102337.84;;;35.11;26.46
48968;BME280;46511;53.148;8.204;2023-06-04T10:08:39;102330.66;;;36.15;25.08
48968;BME280;46511;53.148;8.204;2023-06-04T10:11:08;102332.31;;;35.31;26.55
48968;BME280;46511;53.148;8.204;2023-06-04T10:13:47;102325.50;;;36.25;25.15
48968;BME280;46511;53.148;8.204;2023-06-04T10:16:23;102324.78;;;35.91;25.63
48968;BME280;46511;53.148;8.204;2023-06-04T10:18:52;102326.81;;;33.05;28.66
48968;BME280;46511;53.148;8.204;2023-06-04T10:21:26;102329.84;;;33.10;30.89
48968;BME280;46511;53.148;8.204;2023-06-04T10:23:57;102323.81;;;35.26;28.01
48968;BME280;46511;53.148;8.204;2023-06-04T10:26:29;102328.78;;;34.43;27.63
48968;BME280;46511;53.148;8.204;2023-06-04T10:29:01;102327.22;;;35.55;26.99
48968;BME280;46511;53.148;8.204;2023-06-04T10:31:34;102331.88;;;39.38;22.74
48968;BME280;46511;53.148;8.204;2023-06-04T10:34:08;102333.38;;;34.29;27.22
48968;BME280;46511;53.148;8.204;2023-06-04T10:36:45;102341.69;;;32.32;30.21
48968;BME280;46511;53.148;8.204;2023-06-04T10:39:12;102343.59;;;35.36;27.44
48968;BME280;46511;53.148;8.204;2023-06-04T10:41:38;102335.06;;;34.91;28.06
48968;BME280;46511;53.148;8.204;2023-06-04T10:44:10;102336.88;;;37.18;26.12
48968;BME280;46511;53.148;8.204;2023-06-04T10:46:44;102338.47;;;38.12;25.23
48968;BME280;46511;53.148;8.204;2023-06-04T10:49:10;102338.66;;;36.74;24.33
48968;BME280;46511;53.148;8.204;2023-06-04T10:51:43;102332.53;;;33.32;28.30
48968;BME280;46511;53.148;8.204;2023-06-04T10:54:21;102338.47;;;33.85;28.06
48968;BME280;46511;53.148;8.204;2023-06-04T10:56:54;102344.00;;;35.13;25.87
48968;BME280;46511;53.148;8.204;2023-06-04T10:59:26;102340.19;;;36.70;24.96
48968;BME280;46511;53.148;8.204;2023-06-04T11:02:07;102341.16;;;34.13;27.25
48968;BME280;46511;53.148;8.204;2023-06-04T11:04:39;102335.00;;;34.65;26.45
48968;BME280;46511;53.148;8.204;2023-06-04T11:07:11;102336.72;;;35.85;25.86
48968;BME280;46511;53.148;8.204;2023-06-04T11:09:49;102331.44;;;37.55;23.98
48968;BME280;46511;53.148;8.204;2023-06-04T11:12:21;102329.44;;;39.07;22.30
48968;BME280;46511;53.148;8.204;2023-06-04T11:14:56;102335.03;;;35.71;25.68
48968;BME280;46511;53.148;8.204;2023-06-04T11:17:28;102330.69;;;36.08;24.44
48968;BME280;46511;53.148;8.204;2023-06-04T11:20:01;102321.75;;;38.67;23.23
48968;BME280;46511;53.148;8.204;2023-06-04T11:22:33;102332.66;;;38.62;21.44
48968;BME280;46511;53.148;8.204;2023-06-04T11:25:05;102329.66;;;37.60;23.04
48968;BME280;46511;53.148;8.204;2023-06-04T11:27:37;102326.63;;;37.62;23.04
48968;BME280;46511;53.148;8.204;2023-06-04T11:30:08;102329.03;;;38.50;23.21
48968;BME280;46511;53.148;8.204;2023-06-04T11:32:40;102328.53;;;36.93;23.10
48968;BME280;46511;53.148;8.204;2023-06-04T11:35:11;102327.13;;;36.46;24.75
48968;BME280;46511;53.148;8.204;2023-06-04T11:37:52;102327.63;;;35.65;23.12
48968;BME280;46511;53.148;8.204;2023-06-04T11:40:23;102319.66;;;36.46;23.83
48968;BME280;46511;53.148;8.204;2023-06-04T11:42:54;102326.59;;;35.19;23.31
48968;BME280;46511;53.148;8.204;2023-06-04T11:45:26;102329.22;;;33.99;24.85
48968;BME280;46511;53.148;8.204;2023-06-04T11:48:00;102320.38;;;33.82;26.02
48968;BME280;46511;53.148;8.204;2023-06-04T11:50:27;102325.19;;;34.43;24.00
48968;BME280;46511;53.148;8.204;2023-06-04T11:52:59;102323.56;;;35.67;24.07
48968;BME280;46511;53.148;8.204;2023-06-04T11:55:31;102319.38;;;35.25;24.07
48968;BME280;46511;53.148;8.204;2023-06-04T11:58:02;102319.09;;;34.80;23.96
48968;BME280;46511;53.148;8.204;2023-06-04T12:00:34;102328.28;;;35.14;24.21
48968;BME280;46511;53.148;8.204;2023-06-04T12:03:06;102325.72;;;35.06;24.20
48968;BME280;46511;53.148;8.204;2023-06-04T12:05:37;102316.97;;;35.68;24.64
48968;BME280;46511;53.148;8.204;2023-06-04T12:08:09;102319.00;;;36.06;24.00
48968;BME280;46511;53.148;8.204;2023-06-04T12:10:42;102324.03;;;35.18;23.41
48968;BME280;46511;53.148;8.204;2023-06-04T12:13:14;102317.22;;;35.27;24.48
48968;BME280;46511;53.148;8.204;2023-06-04T12:15:50;102316.31;;;34.60;25.32
48968;BME280;46511;53.148;8.204;2023-06-04T12:18:25;102319.38;;;34.99;26.08
48968;BME280;46511;53.148;8.204;2023-06-04T12:20:56;102327.00;;;34.90;23.44
48968;BME280;46511;53.148;8.204;2023-06-04T12:23:28;102320.59;;;34.70;24.16
48968;BME280;46511;53.148;8.204;2023-06-04T12:26:00;102318.72;;;34.22;24.40
48968;BME280;46511;53.148;8.204;2023-06-04T12:28:28;102316.22;;;34.34;24.88
48968;BME280;46511;53.148;8.204;2023-06-04T12:30:59;102325.09;;;34.90;24.71
48968;BME280;46511;53.148;8.204;2023-06-04T12:33:31;102316.53;;;34.85;23.33
48968;BME280;46511;53.148;8.204;2023-06-04T12:36:02;102317.13;;;34.48;23.79
48968;BME280;46511;53.148;8.204;2023-06-04T12:38:31;102323.13;;;34.84;23.30
48968;BME280;46511;53.148;8.204;2023-06-04T12:41:02;102319.34;;;34.24;25.01
48968;BME280;46511;53.148;8.204;2023-06-04T12:43:29;102312.75;;;33.21;25.01
48968;BME280;46511;53.148;8.204;2023-06-04T12:45:59;102312.00;;;33.62;25.63
48968;BME280;46511;53.148;8.204;2023-06-04T12:48:30;102314.00;;;33.75;24.67
48968;BME280;46511;53.148;8.204;2023-06-04T12:51:03;102305.97;;;35.35;22.92
48968;BME280;46511;53.148;8.204;2023-06-04T12:53:34;102305.75;;;34.90;23.39
48968;BME280;46511;53.148;8.204;2023-06-04T12:56:06;102310.44;;;32.97;23.91
48968;BME280;46511;53.148;8.204;2023-06-04T12:58:38;102306.88;;;32.82;25.46
48968;BME280;46511;53.148;8.204;2023-06-04T13:01:10;102306.91;;;33.59;23.85
48968;BME280;46511;53.148;8.204;2023-06-04T13:03:42;102314.38;;;32.88;24.81
48968;BME280;46511;53.148;8.204;2023-06-04T13:06:14;102317.91;;;31.65;25.35
48968;BME280;46511;53.148;8.204;2023-06-04T13:08:40;102304.47;;;31.18;26.37
48968;BME280;46511;53.148;8.204;2023-06-04T13:11:11;102300.13;;;33.06;24.62
48968;BME280;46511;53.148;8.204;2023-06-04T13:13:44;102306.03;;;32.81;24.72
48968;BME280;46511;53.148;8.204;2023-06-04T13:16:15;102307.47;;;32.77;24.36
48968;BME280;46511;53.148;8.204;2023-06-04T13:18:46;102304.50;;;32.36;23.20